createdAt,value
2018-02-09T00:00:46.846Z,15.82
2018-02-09T00:01:46.824Z,15.83
2018-02-09T00:02:46.832Z,15.82
2018-02-09T00:03:46.820Z,15.81
2018-02-09T00:04:46.837Z,15.84
2018-02-09T00:05:47.092Z,15.8
2018-02-09T00:06:46.845Z,15.8
2018-02-09T00:07:46.822Z,15.78
2018-02-09T00:08:46.815Z,15.82
2018-02-09T00:09:46.820Z,15.81
2018-02-09T00:10:46.871Z,15.77
2018-02-09T00:11:46.878Z,15.76
2018-02-09T00:12:46.834Z,15.77
2018-02-09T00:13:46.812Z,15.75
2018-02-09T00:14:46.807Z,15.8
2018-02-09T00:15:46.858Z,15.77
2018-02-09T00:16:47.069Z,15.77
2018-02-09T00:17:46.822Z,15.75
2018-02-09T00:18:46.815Z,15.78
2018-02-09T00:19:46.814Z,15.77
2018-02-09T00:20:46.828Z,15.74
2018-02-09T00:21:46.861Z,15.74
2018-02-09T00:22:46.822Z,15.77
2018-02-09T00:23:46.826Z,15.77
2018-02-09T00:24:46.813Z,15.78
2018-02-09T00:25:46.807Z,15.72
2018-02-09T00:26:46.843Z,15.75
2018-02-09T00:27:46.833Z,15.76
2018-02-09T00:28:46.826Z,15.77
2018-02-09T00:29:46.809Z,15.77
2018-02-09T00:30:46.816Z,15.73
2018-02-09T00:31:46.936Z,15.75
2018-02-09T00:32:46.838Z,15.76
2018-02-09T00:33:46.875Z,15.74
2018-02-09T00:34:46.811Z,15.73
2018-02-09T00:35:46.812Z,15.74
2018-02-09T00:36:46.858Z,15.73
2018-02-09T00:37:46.824Z,15.73
2018-02-09T00:38:46.812Z,15.72
2018-02-09T00:39:46.829Z,15.72
2018-02-09T00:40:46.811Z,15.71
2018-02-09T00:41:46.799Z,15.73
2018-02-09T00:42:47.102Z,15.71
2018-02-09T00:43:46.775Z,15.67
2018-02-09T00:44:46.807Z,15.68
2018-02-09T00:45:46.879Z,15.67
2018-02-09T00:46:46.828Z,15.67
2018-02-09T00:47:46.835Z,15.67
2018-02-09T00:48:46.804Z,15.67
2018-02-09T00:49:46.843Z,15.67
2018-02-09T00:50:46.947Z,15.66
2018-02-09T00:51:46.786Z,15.65
2018-02-09T00:52:46.819Z,15.65
2018-02-09T00:53:46.815Z,15.66
2018-02-09T00:54:46.791Z,15.63
2018-02-09T00:55:46.802Z,15.62
2018-02-09T00:56:46.794Z,15.63
2018-02-09T00:57:46.846Z,15.62
2018-02-09T00:58:46.802Z,15.63
2018-02-09T00:59:46.804Z,15.61
2018-02-09T01:00:46.807Z,15.62
2018-02-09T01:01:46.817Z,15.6
2018-02-09T01:02:46.833Z,15.59
2018-02-09T01:03:46.801Z,15.58
2018-02-09T01:04:47.044Z,15.59
2018-02-09T01:05:46.802Z,15.59
2018-02-09T01:06:46.790Z,15.58
2018-02-09T01:07:46.827Z,15.58
2018-02-09T01:08:46.792Z,15.57
2018-02-09T01:09:46.800Z,15.59
2018-02-09T01:10:46.783Z,15.57
2018-02-09T01:11:46.805Z,15.55
2018-02-09T01:12:46.911Z,15.57
2018-02-09T01:13:46.790Z,15.58
2018-02-09T01:14:46.808Z,15.56
2018-02-09T01:15:46.802Z,15.56
2018-02-09T01:16:46.821Z,15.55
2018-02-09T01:17:46.957Z,15.57
2018-02-09T01:18:46.784Z,15.56
2018-02-09T01:19:46.783Z,15.55
2018-02-09T01:20:46.900Z,15.55
2018-02-09T01:21:46.797Z,15.53
2018-02-09T01:22:46.821Z,15.54
2018-02-09T01:23:46.825Z,15.54
2018-02-09T01:24:46.802Z,15.52
2018-02-09T01:25:46.789Z,15.53
2018-02-09T01:26:46.796Z,15.52
2018-02-09T01:27:46.788Z,15.52
2018-02-09T01:28:46.857Z,15.52
2018-02-09T01:29:46.814Z,15.49
2018-02-09T01:30:46.804Z,15.48
2018-02-09T01:31:46.800Z,15.49
2018-02-09T01:32:46.807Z,15.49
2018-02-09T01:33:46.817Z,15.47
2018-02-09T01:34:46.780Z,15.46
2018-02-09T01:35:46.803Z,15.47
2018-02-09T01:36:46.806Z,15.47
2018-02-09T01:37:46.788Z,15.47
2018-02-09T01:38:46.794Z,15.47
2018-02-09T01:39:46.786Z,15.45
2018-02-09T01:40:46.776Z,15.45
2018-02-09T01:41:46.783Z,15.46
2018-02-09T01:42:46.784Z,15.47
2018-02-09T01:43:46.909Z,15.44
2018-02-09T01:44:46.797Z,15.44
2018-02-09T01:45:46.768Z,15.45
2018-02-09T01:46:46.786Z,15.44
2018-02-09T01:47:46.855Z,15.44
2018-02-09T01:48:46.809Z,15.44
2018-02-09T01:49:46.890Z,15.46
2018-02-09T01:50:46.798Z,15.43
2018-02-09T01:51:46.793Z,15.44
2018-02-09T01:52:46.780Z,15.42
2018-02-09T01:53:46.811Z,15.42
2018-02-09T01:54:46.834Z,15.42
2018-02-09T01:55:46.783Z,15.4
2018-02-09T01:56:46.790Z,15.39
2018-02-09T01:57:46.771Z,15.41
2018-02-09T01:58:46.823Z,15.4
2018-02-09T01:59:47.066Z,15.41
2018-02-09T02:00:46.795Z,15.4
2018-02-09T02:01:46.777Z,15.37
2018-02-09T02:02:46.781Z,15.4
2018-02-09T02:03:46.826Z,15.41
2018-02-09T02:04:46.851Z,15.38
2018-02-09T02:05:46.768Z,15.38
2018-02-09T02:06:46.800Z,15.37
2018-02-09T02:08:46.812Z,15.36
2018-02-09T02:09:46.784Z,15.39
2018-02-09T02:10:46.797Z,15.36
2018-02-09T02:11:46.807Z,15.37
2018-02-09T02:12:46.770Z,15.38
2018-02-09T02:13:46.798Z,15.37
2018-02-09T02:14:46.768Z,15.37
2018-02-09T02:15:46.802Z,15.36
2018-02-09T02:16:46.787Z,15.34
2018-02-09T02:17:46.811Z,15.34
2018-02-09T02:18:46.780Z,15.33
2018-02-09T02:19:46.796Z,15.33
2018-02-09T02:20:46.817Z,15.34
2018-02-09T02:21:46.777Z,15.36
2018-02-09T02:22:46.775Z,15.32
2018-02-09T02:23:46.796Z,15.32
2018-02-09T02:24:46.774Z,15.3
2018-02-09T02:25:46.800Z,15.29
2018-02-09T02:26:46.762Z,15.3
2018-02-09T02:27:46.783Z,15.3
2018-02-09T02:28:46.805Z,15.3
2018-02-09T02:29:46.769Z,15.28
2018-02-09T02:30:46.790Z,15.3
2018-02-09T02:31:46.773Z,15.31
2018-02-09T02:32:46.778Z,15.3
2018-02-09T02:33:46.788Z,15.28
2018-02-09T02:34:46.762Z,15.28
2018-02-09T02:35:46.809Z,15.3
2018-02-09T02:36:46.772Z,15.28
2018-02-09T02:37:46.766Z,15.3
2018-02-09T02:38:46.774Z,15.27
2018-02-09T02:39:46.765Z,15.26
2018-02-09T02:40:46.776Z,15.28
2018-02-09T02:41:46.811Z,15.28
2018-02-09T02:42:46.767Z,15.27
2018-02-09T02:43:46.804Z,15.27
2018-02-09T02:44:46.770Z,15.26
2018-02-09T02:45:46.792Z,15.27
2018-02-09T02:46:46.755Z,15.25
2018-02-09T02:47:46.760Z,15.25
2018-02-09T02:48:46.750Z,15.24
2018-02-09T02:49:46.755Z,15.26
2018-02-09T02:50:46.907Z,15.26
2018-02-09T02:51:46.769Z,15.25
2018-02-09T02:52:46.758Z,15.26
2018-02-09T02:53:46.748Z,15.23
2018-02-09T02:54:46.771Z,15.24
2018-02-09T02:55:46.743Z,15.25
2018-02-09T02:56:46.770Z,15.22
2018-02-09T02:57:46.805Z,15.24
2018-02-09T02:58:46.814Z,15.24
2018-02-09T02:59:46.755Z,15.21
2018-02-09T03:00:46.764Z,15.24
2018-02-09T03:01:46.754Z,15.23
2018-02-09T03:02:46.771Z,15.22
2018-02-09T03:03:46.783Z,15.22
2018-02-09T03:04:46.749Z,15.23
2018-02-09T03:05:46.756Z,15.24
2018-02-09T03:06:47.026Z,15.21
2018-02-09T03:07:46.767Z,15.21
2018-02-09T03:08:46.766Z,15.21
2018-02-09T03:09:46.753Z,15.22
2018-02-09T03:10:46.751Z,15.19
2018-02-09T03:11:46.769Z,15.21
2018-02-09T03:12:46.752Z,15.21
2018-02-09T03:13:46.737Z,15.22
2018-02-09T03:14:46.808Z,15.21
2018-02-09T03:15:46.748Z,15.19
2018-02-09T03:16:46.779Z,15.19
2018-02-09T03:17:46.777Z,15.18
2018-02-09T03:18:46.749Z,15.19
2018-02-09T03:19:46.741Z,15.16
2018-02-09T03:20:46.737Z,15.19
2018-02-09T03:21:46.742Z,15.19
2018-02-09T03:22:46.780Z,15.16
2018-02-09T03:23:46.742Z,15.17
2018-02-09T03:24:46.754Z,15.17
2018-02-09T03:25:46.751Z,15.18
2018-02-09T03:26:46.757Z,15.17
2018-02-09T03:27:46.778Z,15.16
2018-02-09T03:28:46.726Z,15.16
2018-02-09T03:29:46.743Z,15.16
2018-02-09T03:30:46.733Z,15.17
2018-02-09T03:31:46.753Z,15.15
2018-02-09T03:32:46.897Z,15.16
2018-02-09T03:33:46.755Z,15.15
2018-02-09T03:34:46.764Z,15.17
2018-02-09T03:35:46.738Z,15.15
2018-02-09T03:36:46.739Z,15.14
2018-02-09T03:37:46.783Z,15.15
2018-02-09T03:38:46.747Z,15.15
2018-02-09T03:39:47.005Z,15.17
2018-02-09T03:40:46.774Z,15.13
2018-02-09T03:41:46.753Z,15.15
2018-02-09T03:42:46.723Z,15.14
2018-02-09T03:43:46.736Z,15.13
2018-02-09T03:44:46.741Z,15.14
2018-02-09T03:45:46.743Z,15.14
2018-02-09T03:46:46.731Z,15.13
2018-02-09T03:47:46.767Z,15.11
2018-02-09T03:48:46.745Z,15.11
2018-02-09T03:49:46.771Z,15.11
2018-02-09T03:50:46.736Z,15.12
2018-02-09T03:51:46.735Z,15.1
2018-02-09T03:52:46.765Z,15.11
2018-02-09T03:53:46.734Z,15.11
2018-02-09T03:54:46.731Z,15.1
2018-02-09T03:55:46.754Z,15.11
2018-02-09T03:56:46.736Z,15.1
2018-02-09T03:57:46.736Z,15.11
2018-02-09T03:58:46.960Z,15.11
2018-02-09T03:59:46.730Z,15.1
2018-02-09T04:00:46.744Z,15.1
2018-02-09T04:01:46.717Z,15.08
2018-02-09T04:02:46.773Z,15.09
2018-02-09T04:03:46.750Z,15.09
2018-02-09T04:04:46.724Z,15.08
2018-02-09T04:05:46.739Z,15.09
2018-02-09T04:06:46.675Z,15.1
2018-02-09T04:07:46.756Z,15.09
2018-02-09T04:08:46.733Z,15.07
2018-02-09T04:09:46.743Z,15.08
2018-02-09T04:10:46.726Z,15.09
2018-02-09T04:11:46.754Z,15.07
2018-02-09T04:12:46.724Z,15.06
2018-02-09T04:13:46.747Z,15.08
2018-02-09T04:14:46.744Z,15.08
2018-02-09T04:15:46.733Z,15.07
2018-02-09T04:16:46.715Z,15.06
2018-02-09T04:17:46.748Z,15.07
2018-02-09T04:18:46.755Z,15.06
2018-02-09T04:19:46.736Z,15.08
2018-02-09T04:20:46.760Z,15.08
2018-02-09T04:21:46.740Z,15.08
2018-02-09T04:22:46.739Z,15.07
2018-02-09T04:23:46.748Z,15.08
2018-02-09T04:24:46.744Z,15.04
2018-02-09T04:25:46.722Z,15.07
2018-02-09T04:26:46.713Z,15.04
2018-02-09T04:27:46.722Z,15.02
2018-02-09T04:28:46.727Z,15.03
2018-02-09T04:29:47.013Z,15.03
2018-02-09T04:30:46.713Z,15.06
2018-02-09T04:31:46.734Z,15.02
2018-02-09T04:32:46.723Z,15.06
2018-02-09T04:33:46.739Z,15.07
2018-02-09T04:34:46.738Z,15.02
2018-02-09T04:35:46.724Z,15.01
2018-02-09T04:36:46.764Z,15.01
2018-02-09T04:37:46.754Z,15.02
2018-02-09T04:38:46.723Z,15.04
2018-02-09T04:39:46.718Z,15.02
2018-02-09T04:40:46.780Z,15.03
2018-02-09T04:41:46.745Z,15.03
2018-02-09T04:42:46.752Z,15.02
2018-02-09T04:43:46.716Z,15.02
2018-02-09T04:44:46.722Z,15.01
2018-02-09T04:45:46.729Z,15.02
2018-02-09T04:46:46.727Z,15
2018-02-09T04:47:46.730Z,14.98
2018-02-09T04:48:46.736Z,15
2018-02-09T04:49:46.736Z,14.99
2018-02-09T04:50:46.722Z,15
2018-02-09T04:51:46.817Z,15.03
2018-02-09T04:52:46.729Z,15.01
2018-02-09T04:53:46.724Z,15.04
2018-02-09T04:54:46.724Z,15.07
2018-02-09T04:55:46.739Z,15.06
2018-02-09T04:56:46.713Z,15.06
2018-02-09T04:57:46.717Z,15.06
2018-02-09T04:58:46.711Z,15.04
2018-02-09T04:59:46.720Z,15.07
2018-02-09T05:00:46.767Z,15.06
2018-02-09T05:01:46.702Z,15.06
2018-02-09T05:02:46.756Z,15.06
2018-02-09T05:03:46.733Z,15.08
2018-02-09T05:04:46.729Z,15.06
2018-02-09T05:05:46.979Z,15.04
2018-02-09T05:06:46.710Z,15.06
2018-02-09T05:07:46.710Z,15.08
2018-02-09T05:08:46.702Z,15.08
2018-02-09T05:09:46.732Z,15.07
2018-02-09T05:10:46.740Z,15.09
2018-02-09T05:11:46.711Z,15.11
2018-02-09T05:12:46.700Z,15.11
2018-02-09T05:13:46.760Z,15.11
2018-02-09T05:14:46.723Z,15.11
2018-02-09T05:15:46.677Z,15.14
2018-02-09T05:16:46.832Z,15.13
2018-02-09T05:17:46.735Z,15.15
2018-02-09T05:18:46.709Z,15.16
2018-02-09T05:19:46.698Z,15.16
2018-02-09T05:20:46.718Z,15.21
2018-02-09T05:21:46.722Z,15.22
2018-02-09T05:22:46.704Z,15.22
2018-02-09T05:23:46.703Z,15.23
2018-02-09T05:24:46.689Z,15.25
2018-02-09T05:25:46.711Z,15.26
2018-02-09T05:26:46.712Z,15.27
2018-02-09T05:27:46.707Z,15.29
2018-02-09T05:28:46.720Z,15.31
2018-02-09T05:29:46.703Z,15.32
2018-02-09T05:30:46.698Z,15.34
2018-02-09T05:31:46.636Z,15.36
2018-02-09T05:32:46.737Z,15.37
2018-02-09T05:33:46.704Z,15.38
2018-02-09T05:34:46.703Z,15.42
2018-02-09T05:35:46.710Z,15.41
2018-02-09T05:36:46.702Z,15.45
2018-02-09T05:37:46.724Z,15.45
2018-02-09T05:38:46.689Z,15.46
2018-02-09T05:39:46.748Z,15.47
2018-02-09T05:40:46.697Z,15.49
2018-02-09T05:41:46.697Z,15.52
2018-02-09T05:42:46.968Z,15.53
2018-02-09T05:43:46.707Z,15.54
2018-02-09T05:44:46.698Z,15.58
2018-02-09T05:45:46.701Z,15.61
2018-02-09T05:46:46.681Z,15.62
2018-02-09T05:47:46.739Z,15.63
2018-02-09T05:48:46.700Z,15.65
2018-02-09T05:49:46.706Z,15.66
2018-02-09T05:50:46.687Z,15.67
2018-02-09T05:51:46.702Z,15.69
2018-02-09T05:52:46.883Z,15.68
2018-02-09T05:53:46.688Z,15.72
2018-02-09T05:54:46.703Z,15.72
2018-02-09T05:55:46.678Z,15.73
2018-02-09T05:56:46.708Z,15.75
2018-02-09T05:57:46.722Z,15.77
2018-02-09T05:58:46.708Z,15.77
2018-02-09T05:59:46.698Z,15.78
2018-02-09T06:00:46.695Z,15.81
2018-02-09T06:01:46.677Z,15.82
2018-02-09T06:02:46.719Z,15.82
2018-02-09T06:03:46.720Z,15.84
2018-02-09T06:04:46.701Z,15.87
2018-02-09T06:05:46.707Z,15.87
2018-02-09T06:06:46.679Z,15.88
2018-02-09T06:07:46.674Z,15.91
2018-02-09T06:08:46.706Z,15.9
2018-02-09T06:09:46.697Z,15.91
2018-02-09T06:15:30.837Z,15.99
2018-02-09T06:16:30.366Z,15.98
2018-02-09T06:17:30.364Z,16
2018-02-09T06:18:30.397Z,16.02
2018-02-09T06:19:30.372Z,16.04
2018-02-09T06:20:30.358Z,16.02
2018-02-09T06:21:30.394Z,16.05
2018-02-09T06:22:30.362Z,16.05
2018-02-09T06:23:30.379Z,16.07
2018-02-09T06:24:30.368Z,16.06
2018-02-09T06:25:30.622Z,16.1
2018-02-09T06:26:30.365Z,16.13
2018-02-09T06:27:30.401Z,16.11
2018-02-09T06:28:30.446Z,16.13
2018-02-09T06:29:30.366Z,16.12
2018-02-09T06:30:30.356Z,16.14
2018-02-09T06:31:30.371Z,16.14
2018-02-09T06:32:30.369Z,16.16
2018-02-09T06:33:30.364Z,16.14
2018-02-09T06:34:30.364Z,16.18
2018-02-09T06:35:30.383Z,16.19
2018-02-09T06:36:30.397Z,16.18
2018-02-09T06:37:30.371Z,16.18
2018-02-09T06:38:30.373Z,16.21
2018-02-09T06:39:30.384Z,16.2
2018-02-09T06:40:30.377Z,16.21
2018-02-09T06:41:30.372Z,16.21
2018-02-09T06:42:30.357Z,16.24
2018-02-09T06:43:30.362Z,16.24
2018-02-09T06:44:30.365Z,16.22
2018-02-09T06:45:30.367Z,16.26
2018-02-09T06:46:30.420Z,16.26
2018-02-09T06:47:30.407Z,16.27
2018-02-09T06:48:30.406Z,16.28
2018-02-09T06:49:30.454Z,16.28
2018-02-09T06:50:30.445Z,16.29
2018-02-09T06:51:30.448Z,16.29
2018-02-09T06:52:30.415Z,16.31
2018-02-09T06:53:30.651Z,16.3
2018-02-09T06:54:30.417Z,16.33
2018-02-09T06:55:30.450Z,16.33
2018-02-09T06:56:30.406Z,16.34
2018-02-09T06:57:30.403Z,16.33
2018-02-09T06:58:30.431Z,16.35
2018-02-09T06:59:30.414Z,16.37
2018-02-09T07:00:30.438Z,16.37
2018-02-09T07:01:30.432Z,16.37
2018-02-09T07:02:30.403Z,16.37
2018-02-09T07:03:30.402Z,16.4
2018-02-09T07:04:30.416Z,16.4
2018-02-09T07:05:30.358Z,16.41
2018-02-09T07:06:30.431Z,16.41
2018-02-09T07:07:30.434Z,16.42
2018-02-09T07:08:30.414Z,16.41
2018-02-09T07:09:30.410Z,16.43
2018-02-09T07:10:30.440Z,16.42
2018-02-09T07:11:30.402Z,16.42
2018-02-09T07:12:30.449Z,16.45
2018-02-09T07:13:30.398Z,16.45
2018-02-09T07:14:30.406Z,16.46
2018-02-09T07:15:30.421Z,16.47
2018-02-09T07:16:30.419Z,16.48
2018-02-09T07:17:30.423Z,16.49
2018-02-09T07:18:30.397Z,16.48
2018-02-09T07:19:30.414Z,16.48
2018-02-09T07:20:30.448Z,16.48
2018-02-09T07:21:30.408Z,16.47
2018-02-09T07:22:30.416Z,16.49
2018-02-09T07:23:30.414Z,16.5
2018-02-09T07:24:30.392Z,16.5
2018-02-09T07:25:30.395Z,16.51
2018-02-09T07:26:30.407Z,16.51
2018-02-09T07:27:30.448Z,16.52
2018-02-09T07:28:30.397Z,16.56
2018-02-09T07:29:30.421Z,16.55
2018-02-09T07:30:30.411Z,16.54
2018-02-09T07:31:30.401Z,16.55
2018-02-09T07:32:30.403Z,16.56
2018-02-09T07:33:30.391Z,16.56
2018-02-09T07:34:30.413Z,16.55
2018-02-09T07:35:30.395Z,16.57
2018-02-09T07:36:30.429Z,16.56
2018-02-09T07:37:30.420Z,16.58
2018-02-09T07:38:30.397Z,16.59
2018-02-09T07:39:30.396Z,16.59
2018-02-09T07:40:30.390Z,16.59
2018-02-09T07:41:30.449Z,16.58
2018-02-09T07:42:30.454Z,16.59
2018-02-09T07:43:30.380Z,16.59
2018-02-09T07:44:30.468Z,16.61
2018-02-09T07:45:30.402Z,16.59
2018-02-09T07:46:30.384Z,16.6
2018-02-09T07:47:30.387Z,16.61
2018-02-09T07:48:30.388Z,16.6
2018-02-09T07:49:30.418Z,16.61
2018-02-09T07:50:30.373Z,16.6
2018-02-09T07:51:30.392Z,16.61
2018-02-09T07:52:30.376Z,16.63
2018-02-09T07:53:30.397Z,16.63
2018-02-09T07:54:30.429Z,16.61
2018-02-09T07:55:30.391Z,16.63
2018-02-09T07:56:30.488Z,16.63
2018-02-09T07:57:30.501Z,16.62
2018-02-09T07:58:30.385Z,16.62
2018-02-09T07:59:30.401Z,16.65
2018-02-09T08:00:30.403Z,16.64
2018-02-09T08:01:30.377Z,16.66
2018-02-09T08:02:30.386Z,16.64
2018-02-09T08:03:30.382Z,16.65
2018-02-09T08:04:30.379Z,16.64
2018-02-09T08:05:30.398Z,16.64
2018-02-09T08:06:30.338Z,16.67
2018-02-09T08:07:30.389Z,16.65
2018-02-09T08:08:30.371Z,16.67
2018-02-09T08:09:30.376Z,16.67
2018-02-09T08:10:30.420Z,16.65
2018-02-09T08:11:30.402Z,16.69
2018-02-09T08:12:30.372Z,16.7
2018-02-09T08:13:30.381Z,16.7
2018-02-09T08:14:30.395Z,16.72
2018-02-09T08:15:30.412Z,16.71
2018-02-09T08:16:30.409Z,16.71
2018-02-09T08:17:30.399Z,16.73
2018-02-09T08:18:30.400Z,16.75
2018-02-09T08:19:30.399Z,16.75
2018-02-09T08:20:30.481Z,16.75
2018-02-09T08:21:30.370Z,16.74
2018-02-09T08:22:30.371Z,16.77
2018-02-09T08:23:30.381Z,16.78
2018-02-09T08:24:30.376Z,16.79
2018-02-09T08:25:30.419Z,16.81
2018-02-09T08:27:30.425Z,16.82
2018-02-09T08:28:30.361Z,16.84
2018-02-09T08:29:30.424Z,16.84
2018-02-09T08:30:30.397Z,16.85
2018-02-09T08:31:30.384Z,16.87
2018-02-09T08:32:30.372Z,16.87
2018-02-09T08:33:30.787Z,16.9
2018-02-09T08:34:30.472Z,16.9
2018-02-09T08:36:30.470Z,16.92
2018-02-09T08:37:30.362Z,16.94
2018-02-09T08:38:30.373Z,16.94
2018-02-09T08:39:30.393Z,16.95
2018-02-09T08:40:30.647Z,16.98
2018-02-09T08:41:30.389Z,17
2018-02-09T08:42:30.404Z,16.98
2018-02-09T08:43:30.371Z,17
2018-02-09T08:44:30.382Z,17.01
2018-02-09T08:45:30.487Z,17
2018-02-09T08:46:30.400Z,17.06
2018-02-09T08:47:30.379Z,17.03
2018-02-09T08:48:30.407Z,17.04
2018-02-09T08:49:30.383Z,17.03
2018-02-09T08:50:30.400Z,17.04
2018-02-09T08:51:30.378Z,17.06
2018-02-09T08:52:30.512Z,17.06
2018-02-09T08:53:30.376Z,17.07
2018-02-09T08:54:30.400Z,17.07
2018-02-09T08:55:30.353Z,17.08
2018-02-09T08:56:30.418Z,17.09
2018-02-09T08:57:30.408Z,17.09
2018-02-09T08:58:30.365Z,17.08
2018-02-09T08:59:30.386Z,17.08
2018-02-09T09:00:30.593Z,17.11
2018-02-09T09:01:30.378Z,17.11
2018-02-09T09:02:30.407Z,17.13
2018-02-09T09:03:30.352Z,17.11
2018-02-09T09:04:30.368Z,17.15
2018-02-09T09:05:30.354Z,17.15
2018-02-09T09:06:30.368Z,17.16
2018-02-09T09:07:30.385Z,17.16
2018-02-09T09:08:30.375Z,17.16
2018-02-09T09:09:30.360Z,17.16
2018-02-09T09:10:30.356Z,17.16
2018-02-09T09:11:30.370Z,17.16
2018-02-09T09:12:30.357Z,17.17
2018-02-09T09:13:30.363Z,17.16
2018-02-09T09:14:30.372Z,17.17
2018-02-09T09:15:30.358Z,17.16
2018-02-09T09:16:30.429Z,17.17
2018-02-09T09:17:30.388Z,17.18
2018-02-09T09:18:30.370Z,17.19
2018-02-09T09:19:30.359Z,17.19
2018-02-09T09:20:30.461Z,17.19
2018-02-09T09:21:30.393Z,17.18
2018-02-09T09:22:30.361Z,17.18
2018-02-09T09:23:30.367Z,17.19
2018-02-09T09:24:30.383Z,17.18
2018-02-09T09:25:30.398Z,17.2
2018-02-09T09:26:30.393Z,17.19
2018-02-09T09:27:30.364Z,17.19
2018-02-09T09:28:30.373Z,17.18
2018-02-09T09:30:30.352Z,17.18
2018-02-09T09:31:30.358Z,17.2
2018-02-09T09:32:30.380Z,17.21
2018-02-09T09:33:30.343Z,17.21
2018-02-09T09:34:30.362Z,17.18
2018-02-09T09:35:30.370Z,17.19
2018-02-09T09:36:30.358Z,17.2
2018-02-09T09:37:30.417Z,17.19
2018-02-09T09:38:30.344Z,17.19
2018-02-09T09:39:30.360Z,17.22
2018-02-09T09:40:30.338Z,17.2
2018-02-09T09:41:30.391Z,17.2
2018-02-09T09:42:30.348Z,17.22
2018-02-09T09:43:30.361Z,17.26
2018-02-09T09:44:30.366Z,17.23
2018-02-09T09:45:30.402Z,17.21
2018-02-09T09:46:30.392Z,17.2
2018-02-09T09:47:30.400Z,17.2
2018-02-09T09:48:30.389Z,17.24
2018-02-09T09:49:30.346Z,17.2
2018-02-09T09:50:30.336Z,17.18
2018-02-09T09:51:30.362Z,17.17
2018-02-09T09:52:30.363Z,17.16
2018-02-09T09:53:30.367Z,17.15
2018-02-09T09:54:30.348Z,17.13
2018-02-09T09:55:30.330Z,17.11
2018-02-09T09:56:30.345Z,17.11
2018-02-09T09:57:30.718Z,17.11
2018-02-09T09:58:30.359Z,17.09
2018-02-09T09:59:30.372Z,17.08
2018-02-09T10:00:30.336Z,17.08
2018-02-09T10:01:30.357Z,17.07
2018-02-09T10:02:30.364Z,17.06
2018-02-09T10:03:30.371Z,17.08
2018-02-09T10:04:30.402Z,17.04
2018-02-09T10:05:30.354Z,17.04
2018-02-09T10:06:30.340Z,17.03
2018-02-09T10:07:30.334Z,17.05
2018-02-09T10:08:30.348Z,17.02
2018-02-09T10:09:30.378Z,17.04
2018-02-09T10:10:30.391Z,17
2018-02-09T10:11:30.335Z,17.03
2018-02-09T10:12:30.353Z,17.01
2018-02-09T10:13:30.384Z,17.01
2018-02-09T10:14:30.339Z,17.02
2018-02-09T10:15:30.370Z,17.01
2018-02-09T10:16:30.330Z,16.99
2018-02-09T10:17:30.350Z,17
2018-02-09T10:19:30.371Z,16.96
2018-02-09T10:20:30.340Z,16.99
2018-02-09T10:21:30.335Z,16.98
2018-02-09T10:22:30.332Z,16.96
2018-02-09T10:23:30.340Z,17
2018-02-09T10:24:30.351Z,16.98
2018-02-09T10:25:30.391Z,16.95
2018-02-09T10:26:30.352Z,16.95
2018-02-09T10:27:30.382Z,16.96
2018-02-09T10:28:30.340Z,16.94
2018-02-09T10:29:30.360Z,16.96
2018-02-09T10:30:30.345Z,16.95
2018-02-09T10:31:30.326Z,16.95
2018-02-09T10:32:30.356Z,16.98
2018-02-09T10:33:30.349Z,16.94
2018-02-09T10:34:30.356Z,16.94
2018-02-09T10:35:30.341Z,16.95
2018-02-09T10:36:30.344Z,16.94
2018-02-09T10:37:30.347Z,16.94
2018-02-09T10:38:30.384Z,16.95
2018-02-09T10:39:30.330Z,16.95
2018-02-09T10:40:30.361Z,16.94
2018-02-09T10:41:30.346Z,16.94
2018-02-09T10:42:30.325Z,16.94
2018-02-09T10:43:30.302Z,16.95
2018-02-09T10:44:30.321Z,16.95
2018-02-09T10:45:30.338Z,16.93
2018-02-09T10:46:30.401Z,16.95
2018-02-09T10:47:30.330Z,16.95
2018-02-09T10:48:30.342Z,16.94
2018-02-09T10:49:30.345Z,16.94
2018-02-09T10:50:30.323Z,16.94
2018-02-09T10:51:30.334Z,16.96
2018-02-09T10:52:30.332Z,16.96
2018-02-09T10:53:30.354Z,16.96
2018-02-09T10:54:30.336Z,16.95
2018-02-09T10:55:30.320Z,16.96
2018-02-09T10:56:30.322Z,16.95
2018-02-09T10:57:30.437Z,16.96
2018-02-09T10:58:30.321Z,16.95
2018-02-09T10:59:30.362Z,16.98
2018-02-09T11:00:30.346Z,16.95
2018-02-09T11:01:30.333Z,16.96
2018-02-09T11:02:30.321Z,16.95
2018-02-09T11:03:30.334Z,16.96
2018-02-09T11:04:30.313Z,16.99
2018-02-09T11:05:30.368Z,16.98
2018-02-09T11:06:30.366Z,16.99
2018-02-09T11:07:30.367Z,16.96
2018-02-09T11:08:30.323Z,16.99
2018-02-09T11:09:30.351Z,16.99
2018-02-09T11:10:30.375Z,16.99
2018-02-09T11:11:30.355Z,16.98
2018-02-09T11:12:30.293Z,16.99
2018-02-09T11:13:30.333Z,16.98
2018-02-09T11:14:30.317Z,16.98
2018-02-09T11:15:30.335Z,16.99
2018-02-09T11:16:30.328Z,17
2018-02-09T11:17:30.317Z,17
2018-02-09T11:18:30.319Z,16.99
2018-02-09T11:20:30.319Z,17.01
2018-02-09T11:21:30.300Z,17.02
2018-02-09T11:22:30.315Z,17.02
2018-02-09T11:23:30.386Z,17
2018-02-09T11:24:30.304Z,17.01
2018-02-09T11:25:30.310Z,17.01
2018-02-09T11:26:30.320Z,17.01
2018-02-09T11:27:30.322Z,17.01
2018-02-09T11:28:30.333Z,17.03
2018-02-09T11:29:30.332Z,17.02
2018-02-09T11:30:30.314Z,17
2018-02-09T11:31:30.323Z,17
2018-02-09T11:32:30.329Z,17.03
2018-02-09T11:33:30.298Z,17.02
2018-02-09T11:34:30.319Z,17.03
2018-02-09T11:35:30.338Z,17.04
2018-02-09T11:36:30.293Z,17.06
2018-02-09T11:37:30.314Z,17.03
2018-02-09T11:39:30.343Z,17.05
2018-02-09T11:40:30.319Z,17.05
2018-02-09T11:41:30.299Z,17.04
2018-02-09T11:42:30.310Z,17.06
2018-02-09T11:43:30.327Z,17.05
2018-02-09T11:44:30.381Z,17.06
2018-02-09T11:45:30.432Z,17.06
2018-02-09T11:46:30.330Z,17.05
2018-02-09T11:47:30.298Z,17.06
2018-02-09T11:48:30.303Z,17.07
2018-02-09T11:49:30.340Z,17.06
2018-02-09T11:50:30.362Z,17.07
2018-02-09T11:52:30.318Z,17.07
2018-02-09T11:53:30.455Z,17.08
2018-02-09T11:54:30.320Z,17.07
2018-02-09T11:55:30.290Z,17.07
2018-02-09T11:56:30.294Z,17.07
2018-02-09T11:57:30.302Z,17.09
2018-02-09T11:58:30.414Z,17.08
2018-02-09T12:00:30.304Z,17.08
2018-02-09T12:01:30.294Z,17.07
2018-02-09T12:02:30.337Z,17.07
2018-02-09T12:03:30.339Z,17.1
2018-02-09T12:04:30.358Z,17.1
2018-02-09T12:05:30.307Z,17.11
2018-02-09T12:06:30.309Z,17.1
2018-02-09T12:07:30.316Z,17.1
2018-02-09T12:08:30.299Z,17.07
2018-02-09T12:09:30.293Z,17.08
2018-02-09T12:10:30.292Z,17.1
2018-02-09T12:11:30.295Z,17.1
2018-02-09T12:12:30.310Z,17.09
2018-02-09T12:13:30.287Z,17.11
2018-02-09T12:14:30.300Z,17.11
2018-02-09T12:16:30.342Z,17.11
2018-02-09T12:17:30.353Z,17.11
2018-02-09T12:18:30.297Z,17.11
2018-02-09T12:19:30.292Z,17.09
2018-02-09T12:20:30.327Z,17.13
2018-02-09T12:21:30.324Z,17.09
2018-02-09T12:22:30.287Z,17.11
2018-02-09T12:23:30.292Z,17.11
2018-02-09T12:24:30.380Z,17.13
2018-02-09T12:25:30.399Z,17.13
2018-02-09T12:26:30.294Z,17.1
2018-02-09T12:27:30.305Z,17.14
2018-02-09T12:28:30.490Z,17.11
2018-02-09T12:29:30.318Z,17.14
2018-02-09T12:30:30.231Z,17.11
2018-02-09T12:31:30.331Z,17.14
2018-02-09T12:32:30.283Z,17.11
2018-02-09T12:33:30.343Z,17.11
2018-02-09T12:34:30.359Z,17.13
2018-02-09T12:35:30.322Z,17.13
2018-02-09T12:36:30.375Z,17.11
2018-02-09T12:37:30.303Z,17.11
2018-02-09T12:38:30.299Z,17.11
2018-02-09T12:39:30.285Z,17.13
2018-02-09T12:40:30.363Z,17.13
2018-02-09T12:41:30.312Z,17.14
2018-02-09T12:42:30.275Z,17.11
2018-02-09T12:43:30.303Z,17.14
2018-02-09T12:44:30.342Z,17.15
2018-02-09T12:45:30.296Z,17.13
2018-02-09T12:46:30.397Z,17.13
2018-02-09T12:48:30.320Z,17.14
2018-02-09T12:49:30.269Z,17.11
2018-02-09T12:50:30.338Z,17.11
2018-02-09T12:51:30.348Z,17.14
2018-02-09T12:52:30.405Z,17.16
2018-02-09T12:53:30.448Z,17.16
2018-02-09T12:54:30.314Z,17.16
2018-02-09T12:55:30.316Z,17.18
2018-02-09T12:56:30.353Z,17.16
2018-02-09T12:57:30.360Z,17.2
2018-02-09T12:58:30.279Z,17.19
2018-02-09T12:59:30.400Z,17.2
2018-02-09T13:00:30.341Z,17.2
2018-02-09T13:01:30.327Z,17.22
2018-02-09T13:02:30.336Z,17.24
2018-02-09T13:03:30.354Z,17.21
2018-02-09T13:04:30.368Z,17.24
2018-02-09T13:05:30.340Z,17.24
2018-02-09T13:06:30.310Z,17.24
2018-02-09T13:07:30.368Z,17.25
2018-02-09T13:08:30.281Z,17.26
2018-02-09T13:09:30.353Z,17.28
2018-02-09T13:10:30.406Z,17.26
2018-02-09T13:11:30.269Z,17.29